Time;durP1;ratioP1;P1;durP2;ratioP2;P2;SDS_P1;SDS_P2;PMS_P1;PMS_P2;Temp;Humidity;BMP_temperature;BMP_pressure;BME280_temperature;BME280_humidity;BME280_pressure;Samples;Min_cycle;Max_cycle;Signal;HPM_P1;HPM_P2
2022/04/20 05:01:49;;;;;;;;;;;;;;;11.38;48.75;96120.06;4203598;28;10358;-70
2022/04/20 05:03:53;;;;;;;;;;;;;;;11.42;48.90;96128.38;4197571;28;5717;-70
2022/04/20 05:05:55;;;;;;;;;;;;;;;11.43;49.50;96128.16;4197292;28;5720;-69
2022/04/20 05:07:56;;;;;;;;;;;;;;;11.45;49.44;96126.13;4196648;28;5729;-69
2022/04/20 05:09:58;;;;;;;;;;;;;;;11.45;50.66;96123.47;4182208;28;5730;-69
2022/04/20 05:12:01;;;;;;;;;;;;;;;11.48;49.86;96130.19;4172367;28;5885;-70
2022/04/20 05:14:02;;;;;;;;;;;;;;;11.49;49.58;96137.91;4177183;28;5710;-71
2022/04/20 05:16:04;;;;;;;;;;;;;;;11.51;49.71;96141.13;4180078;28;5767;-71
2022/04/20 05:18:06;;;;;;;;;;;;;;;11.52;49.60;96142.75;4190352;28;5855;-70
2022/04/20 05:20:08;;;;;;;;;;;;;;;11.54;49.54;96140.69;4196280;28;5799;-70
2022/04/20 05:22:10;;;;;;;;;;;;;;;11.57;49.45;96144.78;4196519;28;5788;-70
2022/04/20 05:24:11;;;;;;;;;;;;;;;11.56;50.00;96157.22;4197244;28;5812;-71
2022/04/20 05:26:13;;;;;;;;;;;;;;;11.52;50.28;96149.88;4184271;28;5767;-71
2022/04/20 05:28:15;;;;;;;;;;;;;;;11.48;50.33;96152.16;4164651;28;5755;-71
2022/04/20 05:30:16;;;;;;;;;;;;;;;11.46;50.02;96148.94;4165130;28;5811;-71
2022/04/20 05:32:18;;;;;;;;;;;;;;;11.49;49.51;96152.97;4182414;28;5120;-71
2022/04/20 05:34:19;;;;;;;;;;;;;;;11.52;49.66;96150.69;4195993;28;5763;-71
2022/04/20 05:36:21;;;;;;;;;;;;;;;11.58;49.63;96147.22;4197506;28;5724;-71
2022/04/20 05:43:03;;;;;;;;;;;;;;;11.65;50.46;96139.19;4197672;28;5731;-70
2022/04/20 05:45:05;;;;;;;;;;;;;;;11.68;50.40;96133.50;4197488;28;5717;-73
2022/04/20 05:47:07;;;;;;;;;;;;;;;11.76;50.18;96137.69;4197553;28;5764;-71
2022/04/20 05:49:09;;;;;;;;;;;;;;;11.77;50.46;96137.47;4197002;28;5804;-72
2022/04/20 05:51:11;;;;;;;;;;;;;;;11.76;50.90;96137.69;4196519;28;5705;-71
2022/04/20 05:53:13;;;;;;;;;;;;;;;11.64;52.03;96141.03;4197631;28;5711;-72
2022/04/20 05:55:14;;;;;;;;;;;;;;;11.75;51.75;96142.19;4197101;28;5721;-71
2022/04/20 05:57:16;;;;;;;;;;;;;;;11.79;52.05;96145.22;4197206;28;5717;-71
2022/04/20 05:59:17;;;;;;;;;;;;;;;11.80;52.40;96150.34;4196541;28;5733;-70
2022/04/20 06:01:22;;;;;;;;;;;;;;;11.80;52.14;96149.53;4178257;28;5810;-71
2022/04/20 06:03:24;;;;;;;;;;;;;;;11.83;52.25;96141.94;4169766;28;5738;-73
2022/04/20 06:05:31;;;;;;;;;;;;;;;11.91;51.66;96144.31;4152667;28;5902;-70
2022/04/20 06:07:33;;;;;;;;;;;;;;;12.03;51.88;96149.72;4168589;28;5761;-70
2022/04/20 06:09:34;;;;;;;;;;;;;;;12.08;52.70;96141.91;4151777;28;6013;-71
2022/04/20 06:11:36;;;;;;;;;;;;;;;12.14;52.13;96141.06;4164121;28;5578;-71
2022/04/20 06:13:38;;;;;;;;;;;;;;;12.23;51.55;96139.75;4161146;28;5929;-72
2022/04/20 06:15:40;;;;;;;;;;;;;;;12.25;53.09;96142.19;4161358;28;5753;-69
2022/04/20 06:17:41;;;;;;;;;;;;;;;12.43;51.46;96144.84;4156682;28;5842;-71
2022/04/20 06:19:43;;;;;;;;;;;;;;;12.61;51.05;96140.56;4164929;28;5749;-72
2022/04/20 06:21:45;;;;;;;;;;;;;;;12.76;50.91;96144.47;4169003;28;5804;-72
2022/04/20 06:23:46;;;;;;;;;;;;;;;12.85;50.56;96142.31;4167522;28;5857;-72
2022/04/20 06:25:48;;;;;;;;;;;;;;;12.78;50.16;96142.38;4155952;28;5767;-69
2022/04/20 06:27:50;;;;;;;;;;;;;;;12.72;50.71;96132.69;4161337;28;5759;-72
2022/04/20 06:29:51;;;;;;;;;;;;;;;12.70;51.30;96139.25;4158313;28;5758;-72
2022/04/20 06:31:53;;;;;;;;;;;;;;;12.80;51.04;96129.75;4165547;28;5734;-70
2022/04/20 06:33:58;;;;;;;;;;;;;;;12.89;50.57;96132.06;4163512;28;5772;-72
2022/04/20 06:36:00;;;;;;;;;;;;;;;12.98;50.17;96131.53;4167144;28;5837;-71
2022/04/20 06:38:02;;;;;;;;;;;;;;;12.78;50.44;96138.94;4168601;28;6401;-71
2022/04/20 06:40:04;;;;;;;;;;;;;;;12.77;50.41;96143.44;4168726;28;5738;-70
2022/04/20 06:42:07;;;;;;;;;;;;;;;12.59;51.16;96143.44;4168958;28;5778;-72
2022/04/20 06:44:09;;;;;;;;;;;;;;;12.44;50.73;96138.50;4168421;28;5803;-72
2022/04/20 06:46:10;;;;;;;;;;;;;;;12.41;50.63;96140.78;4168335;28;5829;-71
2022/04/20 06:48:12;;;;;;;;;;;;;;;12.49;50.81;96137.84;4167881;28;5742;-72
2022/04/20 06:50:14;;;;;;;;;;;;;;;12.47;50.24;96124.81;4167305;28;5674;-72
2022/04/20 06:59:15;;;;;;;;;;;;;;;12.09;50.92;96126.84;4167514;28;6806;-72
2022/04/20 07:01:17;;;;;;;;;;;;;;;12.15;50.84;96129.44;4158775;28;7913;-69
2022/04/20 07:03:18;;;;;;;;;;;;;;;12.15;50.63;96128.63;4165371;28;5849;-74
2022/04/20 07:05:20;;;;;;;;;;;;;;;12.17;50.35;96122.06;4155874;28;6546;-71
2022/04/20 07:07:22;;;;;;;;;;;;;;;12.20;50.27;96126.94;4182525;28;5820;-72
2022/04/20 07:09:43;;;;;;;;;;;;;;;11.94;51.54;96135.94;4168279;28;5811;-72
2022/04/20 07:11:45;;;;;;;;;;;;;;;11.93;51.67;96123.72;4181084;28;5766;-72
2022/04/20 07:13:47;;;;;;;;;;;;;;;11.90;51.39;96126.81;4180055;28;5889;-72
2022/04/20 07:15:49;;;;;;;;;;;;;;;12.04;51.99;96124.03;4165856;28;6547;-69
2022/04/20 07:17:51;;;;;;;;;;;;;;;12.14;50.91;96119.88;4166135;28;5307;-71
2022/04/20 07:19:53;;;;;;;;;;;;;;;12.22;50.51;96124.06;4165624;28;7749;-68
2022/04/20 07:21:55;;;;;;;;;;;;;;;12.25;50.43;96118.34;4163778;28;5888;-73
2022/04/20 07:23:56;;;;;;;;;;;;;;;12.17;51.00;96121.25;4158874;28;5851;-71
2022/04/20 07:25:58;;;;;;;;;;;;;;;12.05;51.69;96123.81;4149373;28;5925;-72
2022/04/20 07:27:59;;;;;;;;;;;;;;;11.97;50.84;96124.09;4152721;28;6145;-73
2022/04/20 07:30:01;;;;;;;;;;;;;;;12.05;51.01;96125.66;4165412;28;5834;-71
2022/04/20 07:32:03;;;;;;;;;;;;;;;12.18;50.38;96117.56;4165683;28;5852;-70
2022/04/20 07:34:05;;;;;;;;;;;;;;;12.14;50.33;96119.88;4162541;28;5874;-66
2022/04/20 07:36:06;;;;;;;;;;;;;;;11.78;51.26;96125.03;4148770;28;5877;-69
2022/04/20 07:38:08;;;;;;;;;;;;;;;11.91;50.61;96119.69;4149165;28;5212;-68
2022/04/20 07:40:12;;;;;;;;;;;;;;;11.95;51.00;96116.38;4148912;28;5858;-68
2022/04/20 07:42:14;;;;;;;;;;;;;;;11.95;51.12;96129.63;4149421;28;5861;-75
2022/04/20 07:44:15;;;;;;;;;;;;;;;12.14;51.06;96117.22;4156642;28;6067;-73
2022/04/20 07:46:19;;;;;;;;;;;;;;;12.19;50.41;96117.34;4144472;28;5771;-70
2022/04/20 07:48:20;;;;;;;;;;;;;;;12.30;49.98;96122.97;4163435;28;5848;-71
2022/04/20 07:50:24;;;;;;;;;;;;;;;12.20;49.54;96116.31;4171342;28;5852;-74
2022/04/20 07:52:25;;;;;;;;;;;;;;;12.04;50.31;96121.41;4166081;28;5741;-68
2022/04/20 07:54:27;;;;;;;;;;;;;;;12.10;49.80;96123.97;4150828;28;5997;-67
2022/04/20 07:56:28;;;;;;;;;;;;;;;12.07;49.78;96121.75;4149146;28;5846;-67
2022/04/20 07:58:30;;;;;;;;;;;;;;;12.05;50.21;96121.19;4149029;28;5881;-66
2022/04/20 08:00:32;;;;;;;;;;;;;;;11.99;50.35;96118.56;4159976;28;5945;-65
2022/04/20 08:02:33;;;;;;;;;;;;;;;12.05;49.96;96129.13;4162539;28;6010;-66
2022/04/20 08:04:35;;;;;;;;;;;;;;;12.07;51.04;96128.91;4164692;28;5848;-68
2022/04/20 08:06:37;;;;;;;;;;;;;;;12.13;50.30;96128.84;4161570;28;5778;-68
2022/04/20 08:08:39;;;;;;;;;;;;;;;12.18;50.58;96130.84;4151080;28;6588;-67
2022/04/20 08:10:40;;;;;;;;;;;;;;;12.24;50.21;96130.78;4159672;28;6072;-73
2022/04/20 08:12:47;;;;;;;;;;;;;;;12.05;50.97;96126.47;4162234;28;5776;-71
2022/04/20 08:14:49;;;;;;;;;;;;;;;11.92;51.38;96131.91;4150457;28;5849;-65
2022/04/20 08:16:52;;;;;;;;;;;;;;;12.03;50.84;96131.19;4157464;28;5740;-66
2022/04/20 08:18:53;;;;;;;;;;;;;;;12.09;50.38;96126.84;4150925;28;6434;-74
2022/04/20 08:20:55;;;;;;;;;;;;;;;11.86;50.35;96132.75;4163286;28;6328;-68
2022/04/20 08:22:56;;;;;;;;;;;;;;;11.94;50.41;96121.88;4167344;28;5739;-69
2022/04/20 08:25:02;;;;;;;;;;;;;;;11.93;50.80;96129.03;4167076;28;5839;-72
2022/04/20 08:27:04;;;;;;;;;;;;;;;12.12;50.38;96129.88;4167242;28;5762;-72
2022/04/20 08:29:09;;;;;;;;;;;;;;;12.30;49.68;96131.72;4166990;28;5771;-73
2022/04/20 08:31:15;;;;;;;;;;;;;;;12.37;49.44;96131.66;4167052;28;5741;-71
2022/04/20 08:33:16;;;;;;;;;;;;;;;12.46;49.28;96130.34;4167108;28;5762;-67
2022/04/20 08:35:19;;;;;;;;;;;;;;;12.22;50.54;96132.00;4167063;28;5800;-69
2022/04/20 08:37:21;;;;;;;;;;;;;;;12.12;51.02;96135.19;4165071;28;5880;-68
2022/04/20 08:39:23;;;;;;;;;;;;;;;12.31;50.97;96129.88;4165631;28;5734;-70
2022/04/20 08:41:24;;;;;;;;;;;;;;;12.41;50.06;96130.19;4166977;28;6563;-71
2022/04/20 08:43:28;;;;;;;;;;;;;;;12.52;49.75;96124.16;4165765;28;5773;-72
2022/04/20 08:45:32;;;;;;;;;;;;;;;12.31;50.22;96124.59;4166872;28;5801;-71
2022/04/20 08:47:36;;;;;;;;;;;;;;;12.50;49.58;96123.56;4167190;28;5779;-65
2022/04/20 08:49:41;;;;;;;;;;;;;;;12.54;49.90;96122.88;4166526;28;5802;-70
2022/04/20 08:54:03;;;;;;;;;;;;;;;12.55;49.69;96129.00;4165188;28;5661;-68
2022/04/20 08:58:26;;;;;;;;;;;;;;;12.75;50.07;96123.47;4167116;28;5771;-73
2022/04/20 09:00:27;;;;;;;;;;;;;;;12.75;49.33;96126.94;4166334;28;5742;-74
2022/04/20 09:02:30;;;;;;;;;;;;;;;12.82;49.30;96119.72;4154722;28;5839;-71
2022/04/20 09:04:33;;;;;;;;;;;;;;;12.86;49.72;96113.94;4155640;28;5647;-69
2022/04/20 09:06:35;;;;;;;;;;;;;;;12.83;49.99;96115.22;4163661;28;5739;-68
2022/04/20 09:08:38;;;;;;;;;;;;;;;12.95;49.43;96116.06;4167016;28;5771;-67
2022/04/20 09:10:40;;;;;;;;;;;;;;;12.94;49.88;96108.34;4166772;28;6530;-70
2022/04/20 09:12:43;;;;;;;;;;;;;;;13.03;49.83;96113.13;4167003;28;5745;-72
2022/04/20 09:14:48;;;;;;;;;;;;;;;13.05;49.41;96110.25;4166749;28;5762;-72
2022/04/20 09:16:57;;;;;;;;;;;;;;;13.10;49.08;96108.50;4167039;28;5746;-66
2022/04/20 09:18:58;;;;;;;;;;;;;;;13.15;48.30;96105.19;4166880;28;5872;-69
2022/04/20 09:21:04;;;;;;;;;;;;;;;13.19;48.58;96101.09;4166374;28;5825;-67
2022/04/20 09:23:08;;;;;;;;;;;;;;;13.25;48.75;96108.16;4158494;28;5896;-67
2022/04/20 09:25:18;;;;;;;;;;;;;;;13.25;48.41;96097.53;4160544;28;5930;-68
2022/04/20 09:27:20;;;;;;;;;;;;;;;13.37;47.80;96092.25;4156257;28;5657;-71
2022/04/20 09:29:23;;;;;;;;;;;;;;;13.40;47.81;96099.75;4160646;28;5861;-69
2022/04/20 09:31:47;;;;;;;;;;;;;;;13.32;47.86;96105.38;4160529;28;5097;-67
2022/04/20 09:33:50;;;;;;;;;;;;;;;13.34;48.47;96104.13;4159374;28;5872;-66
2022/04/20 09:35:53;;;;;;;;;;;;;;;13.36;47.94;96102.06;4157983;28;5844;-67
2022/04/20 09:38:06;;;;;;;;;;;;;;;13.26;48.23;96096.50;4163866;28;5857;-69
2022/04/20 09:40:13;;;;;;;;;;;;;;;13.45;47.83;96099.06;4153093;28;5836;-69
2022/04/20 09:42:16;;;;;;;;;;;;;;;13.42;47.54;96095.03;4155692;28;5857;-69
2022/04/20 09:44:20;;;;;;;;;;;;;;;13.40;48.43;96092.59;4166015;28;5962;-68
2022/04/20 09:48:52;;;;;;;;;;;;;;;13.34;47.91;96096.16;4160498;28;5803;-65
2022/04/20 09:50:53;;;;;;;;;;;;;;;13.54;48.88;96087.06;4157888;28;6642;-68
2022/04/20 09:52:57;;;;;;;;;;;;;;;13.55;48.33;96094.81;4161829;28;5953;-68
2022/04/20 09:54:59;;;;;;;;;;;;;;;13.40;48.24;96094.44;4162091;28;5873;-65
2022/04/20 09:57:12;;;;;;;;;;;;;;;13.13;48.51;96088.66;4158547;28;5880;-65
2022/04/20 09:59:15;;;;;;;;;;;;;;;13.21;47.87;96088.38;4161576;28;5239;-69
2022/04/20 10:01:25;;;;;;;;;;;;;;;13.25;47.32;96078.97;4162839;28;5833;-67
2022/04/20 10:03:28;;;;;;;;;;;;;;;13.18;47.23;96077.41;4162525;28;5864;-68
2022/04/20 10:05:30;;;;;;;;;;;;;;;13.27;47.75;96079.53;4162360;28;5832;-65
2022/04/20 10:07:33;;;;;;;;;;;;;;;13.35;47.51;96079.19;4162209;28;5944;-65
2022/04/20 10:09:35;;;;;;;;;;;;;;;13.50;46.97;96077.97;4178867;28;5806;-67
2022/04/20 10:11:38;;;;;;;;;;;;;;;13.57;46.27;96076.00;4159938;28;5870;-70
2022/04/20 10:13:40;;;;;;;;;;;;;;;13.58;46.38;96078.41;4160350;28;5777;-69
2022/04/20 10:18:05;;;;;;;;;;;;;;;13.69;46.33;96066.19;4149721;28;5849;-68
2022/04/20 10:20:08;;;;;;;;;;;;;;;13.60;46.35;96070.25;4162969;28;5841;-67
2022/04/20 10:22:10;;;;;;;;;;;;;;;13.73;46.57;96070.03;4165880;28;5897;-68
2022/04/20 10:24:15;;;;;;;;;;;;;;;13.73;45.42;96066.56;4165382;28;5856;-67
2022/04/20 10:26:20;;;;;;;;;;;;;;;13.77;45.65;96073.00;4157811;28;5840;-65
2022/04/20 10:28:53;;;;;;;;;;;;;;;13.80;46.14;96076.00;4179367;28;5757;-68
2022/04/20 10:31:26;;;;;;;;;;;;;;;13.80;46.93;96070.69;4161902;28;6539;-68
2022/04/20 10:33:31;;;;;;;;;;;;;;;13.86;47.92;96069.78;4162621;28;5845;-67
2022/04/20 10:35:54;;;;;;;;;;;;;;;13.85;46.78;96062.84;4165043;28;5929;-67
2022/04/20 10:38:07;;;;;;;;;;;;;;;13.84;48.10;96058.59;4151634;28;5940;-67
2022/04/20 10:40:16;;;;;;;;;;;;;;;14.04;46.88;96060.88;4153985;28;6836;-64
2022/04/20 10:42:38;;;;;;;;;;;;;;;13.99;46.19;96064.22;4159750;28;5877;-65
2022/04/20 10:44:55;;;;;;;;;;;;;;;14.16;46.06;96055.56;4153853;28;5906;-67
2022/04/20 10:47:04;;;;;;;;;;;;;;;14.17;46.41;96057.19;4163835;28;5828;-67
2022/04/20 10:49:16;;;;;;;;;;;;;;;14.19;45.90;96052.44;4162313;28;5844;-68
2022/04/20 10:51:18;;;;;;;;;;;;;;;14.20;45.99;96054.06;4158402;28;5881;-72
2022/04/20 10:53:22;;;;;;;;;;;;;;;14.20;46.17;96048.72;4161564;28;5986;-74
2022/04/20 10:55:44;;;;;;;;;;;;;;;14.39;45.72;96052.88;4162040;28;5965;-65
2022/04/20 10:57:46;;;;;;;;;;;;;;;14.48;44.58;96045.34;4151980;28;5882;-66
2022/04/20 11:00:16;;;;;;;;;;;;;;;14.44;45.33;96053.00;4162766;28;5861;-69
2022/04/20 11:02:25;;;;;;;;;;;;;;;14.44;45.15;96054.81;4162012;28;5841;-69
2022/04/20 11:04:31;;;;;;;;;;;;;;;14.34;44.92;96043.97;4161917;28;6350;-69
2022/04/20 11:06:58;;;;;;;;;;;;;;;14.34;45.37;96049.28;4158298;28;5928;-68
2022/04/20 11:09:00;;;;;;;;;;;;;;;14.36;45.08;96048.00;4164270;28;6054;-68
2022/04/20 11:21:09;;;;;;;;;;;;;;;14.56;44.61;96051.09;4157936;28;5878;-66
2022/04/20 11:23:11;;;;;;;;;;;;;;;14.57;45.46;96050.06;4158218;28;5956;-68
2022/04/20 11:25:13;;;;;;;;;;;;;;;14.59;46.04;96057.00;4159001;28;5817;-70
2022/04/20 11:27:15;;;;;;;;;;;;;;;14.65;45.66;96056.06;4160297;28;5502;-71
2022/04/20 11:29:24;;;;;;;;;;;;;;;14.63;46.28;96058.97;4163254;28;7730;-72
2022/04/20 11:31:26;;;;;;;;;;;;;;;14.50;46.22;96061.91;4165130;28;5832;-69
2022/04/20 11:33:30;;;;;;;;;;;;;;;14.45;46.35;96059.13;4161696;28;6519;-68
2022/04/20 11:35:32;;;;;;;;;;;;;;;14.65;46.24;96056.06;4165163;28;5840;-71
2022/04/20 11:37:34;;;;;;;;;;;;;;;14.82;45.69;96040.94;4161790;28;5820;-71
2022/04/20 11:39:36;;;;;;;;;;;;;;;14.86;45.67;96047.41;4158563;28;6028;-68
2022/04/20 11:41:43;;;;;;;;;;;;;;;14.85;45.82;96045.81;4155570;28;5848;-67
2022/04/20 11:43:45;;;;;;;;;;;;;;;14.86;45.82;96052.75;4159004;28;5945;-70
2022/04/20 11:45:50;;;;;;;;;;;;;;;14.81;46.41;96044.66;4160347;28;5734;-70
2022/04/20 11:47:52;;;;;;;;;;;;;;;14.82;46.66;96041.75;4162620;28;5977;-73
2022/04/20 11:49:56;;;;;;;;;;;;;;;14.84;46.98;96045.00;4163623;28;5214;-71
2022/04/20 11:51:58;;;;;;;;;;;;;;;14.85;46.83;96048.47;4164391;28;5840;-72
2022/04/20 11:54:00;;;;;;;;;;;;;;;14.96;46.32;96044.16;4164598;28;6034;-75
2022/04/20 11:56:02;;;;;;;;;;;;;;;15.03;45.84;96056.25;4161822;28;5832;-74
2022/04/20 11:58:14;;;;;;;;;;;;;;;15.07;45.75;96057.41;4167325;28;5807;-68
2022/04/20 12:00:20;;;;;;;;;;;;;;;15.14;45.60;96054.56;4155734;28;5870;-67
2022/04/20 12:02:22;;;;;;;;;;;;;;;15.03;45.84;96056.25;4157920;28;5848;-75
2022/04/20 12:04:28;;;;;;;;;;;;;;;15.13;46.17;96067.06;4160773;28;5797;-68
2022/04/20 12:06:30;;;;;;;;;;;;;;;15.25;45.97;96055.56;4152108;28;6061;-76
2022/04/20 12:08:34;;;;;;;;;;;;;;;15.26;45.34;96067.81;4154400;28;6022;-69
2022/04/20 12:10:38;;;;;;;;;;;;;;;15.26;45.75;96057.97;4157042;28;6544;-67
2022/04/20 12:12:42;;;;;;;;;;;;;;;15.25;45.92;96051.03;4156576;28;6012;-69
2022/04/20 12:14:46;;;;;;;;;;;;;;;14.98;46.24;96050.03;4157913;28;6759;-71
2022/04/20 12:16:51;;;;;;;;;;;;;;;15.10;46.20;96054.25;4157203;28;6552;-74
2022/04/20 12:18:53;;;;;;;;;;;;;;;15.23;46.33;96047.00;4154262;28;5832;-70
2022/04/20 12:20:54;;;;;;;;;;;;;;;15.13;46.66;96040.44;4153916;28;5973;-73
2022/04/20 12:23:06;;;;;;;;;;;;;;;15.17;46.95;96040.75;4164278;28;5853;-68
2022/04/20 12:25:10;;;;;;;;;;;;;;;15.37;46.25;96042.97;4164492;28;5841;-73
2022/04/20 12:27:22;;;;;;;;;;;;;;;15.50;46.18;96040.00;4159098;28;5750;-68
2022/04/20 12:29:27;;;;;;;;;;;;;;;15.54;46.01;96030.47;4156408;28;5956;-72
2022/04/20 12:31:30;;;;;;;;;;;;;;;15.52;46.07;96032.59;4149642;28;5918;-72
2022/04/20 12:33:32;;;;;;;;;;;;;;;15.60;46.17;96034.06;4160069;28;5844;-70
2022/04/20 12:35:33;;;;;;;;;;;;;;;15.61;45.55;96030.34;4154913;28;5834;-76
2022/04/20 12:37:39;;;;;;;;;;;;;;;15.60;46.13;96037.50;4157875;28;5909;-66
2022/04/20 12:39:44;;;;;;;;;;;;;;;15.55;46.34;96029.44;4158971;28;5873;-65
2022/04/20 12:41:47;;;;;;;;;;;;;;;15.62;46.06;96031.94;4161936;28;5825;-66
2022/04/20 12:43:48;;;;;;;;;;;;;;;15.72;46.22;96034.75;4162521;28;5900;-66
2022/04/20 12:46:13;;;;;;;;;;;;;;;15.89;45.75;96024.09;4162583;28;5905;-65
2022/04/20 12:48:15;;;;;;;;;;;;;;;15.91;45.61;96024.66;4148296;28;6647;-66
2022/04/20 12:50:18;;;;;;;;;;;;;;;15.88;45.79;96019.81;4158931;28;5849;-66
2022/04/20 12:52:28;;;;;;;;;;;;;;;15.86;45.64;96017.41;4161111;28;5884;-66
2022/04/20 12:54:30;;;;;;;;;;;;;;;15.83;45.66;96014.41;4162990;28;5991;-65
2022/04/20 13:03:45;;;;;;;;;;;;;;;15.92;45.41;96012.94;4165368;28;5811;-66
2022/04/20 13:05:47;;;;;;;;;;;;;;;15.92;45.94;96004.94;4157791;28;5867;-65
2022/04/20 13:07:48;;;;;;;;;;;;;;;15.95;46.72;96015.09;4161338;28;5949;-66
2022/04/20 13:09:55;;;;;;;;;;;;;;;15.96;46.49;96014.06;4163372;28;5964;-66
2022/04/20 13:12:00;;;;;;;;;;;;;;;15.89;46.40;96018.78;4180166;28;5947;-66
2022/04/20 13:14:02;;;;;;;;;;;;;;;15.97;46.80;96021.84;4181308;28;5822;-65
2022/04/20 13:16:08;;;;;;;;;;;;;;;16.00;46.53;96017.84;4180341;28;5856;-65
2022/04/20 13:18:10;;;;;;;;;;;;;;;16.04;46.99;96021.63;4169727;28;5964;-66
2022/04/20 13:20:12;;;;;;;;;;;;;;;16.06;47.56;96021.38;4180870;28;5843;-66
2022/04/20 13:22:14;;;;;;;;;;;;;;;15.97;47.08;96026.34;4180379;28;5819;-66
2022/04/20 13:28:58;;;;;;;;;;;;;;;15.95;47.69;96020.44;4177672;28;5840;-65
2022/04/20 13:31:00;;;;;;;;;;;;;;;15.58;48.47;96028.94;4167542;28;5896;-65
2022/04/20 13:33:12;;;;;;;;;;;;;;;15.71;48.12;96022.50;4167325;28;5808;-65
2022/04/20 13:35:14;;;;;;;;;;;;;;;15.90;47.62;96026.50;4168253;28;5867;-66
2022/04/20 13:37:16;;;;;;;;;;;;;;;15.97;47.09;96021.03;4182951;28;5804;-66
2022/04/20 13:39:20;;;;;;;;;;;;;;;16.07;46.97;96017.66;4167179;28;5935;-66
2022/04/20 13:41:22;;;;;;;;;;;;;;;16.07;46.20;96015.81;4167654;28;6684;-69
2022/04/20 13:43:24;;;;;;;;;;;;;;;16.15;46.73;96012.72;4174664;28;5812;-66
2022/04/20 13:45:26;;;;;;;;;;;;;;;16.17;46.14;96015.94;4179262;28;5816;-67
2022/04/20 13:47:27;;;;;;;;;;;;;;;16.21;45.86;96001.06;4165694;28;5659;-66
2022/04/20 13:49:29;;;;;;;;;;;;;;;16.26;44.95;96003.00;4178855;28;5860;-66
2022/04/20 13:51:33;;;;;;;;;;;;;;;16.27;44.69;96001.94;4179704;28;5744;-66
2022/04/20 13:53:35;;;;;;;;;;;;;;;16.32;44.95;95995.88;4181230;28;5822;-67
2022/04/20 13:55:36;;;;;;;;;;;;;;;16.39;45.19;95991.13;4176503;28;5095;-66
2022/04/20 13:57:38;;;;;;;;;;;;;;;16.46;45.32;95999.78;4169587;28;5735;-66
2022/04/20 13:59:40;;;;;;;;;;;;;;;16.46;45.00;95997.09;4167345;28;5762;-66
2022/04/20 14:01:42;;;;;;;;;;;;;;;16.53;44.71;95993.16;4168010;28;5105;-67
2022/04/20 14:03:44;;;;;;;;;;;;;;;16.59;44.15;95994.03;4159673;28;5775;-67
2022/04/20 14:05:46;;;;;;;;;;;;;;;16.58;44.26;95989.75;4161876;28;6726;-67
2022/04/20 14:07:47;;;;;;;;;;;;;;;16.57;44.15;95983.63;4172665;28;5734;-66
2022/04/20 14:09:49;;;;;;;;;;;;;;;16.52;43.96;95982.75;4169355;28;5856;-66
2022/04/20 14:11:51;;;;;;;;;;;;;;;16.40;44.23;95976.75;4169616;28;5757;-66
2022/04/20 14:13:52;;;;;;;;;;;;;;;16.31;44.79;95976.41;4169478;28;5813;-66
2022/04/20 14:15:54;;;;;;;;;;;;;;;16.46;45.17;95973.91;4169417;28;5750;-66
2022/04/20 14:17:56;;;;;;;;;;;;;;;16.54;44.60;95978.78;4169170;28;5750;-66
2022/04/20 14:19:59;;;;;;;;;;;;;;;16.66;44.33;95981.31;4168668;28;5734;-67
2022/04/20 14:22:00;;;;;;;;;;;;;;;16.42;44.89;95975.47;4163388;28;5764;-67
2022/04/20 14:24:03;;;;;;;;;;;;;;;16.58;44.21;95974.56;4164191;28;5697;-67
2022/04/20 14:33:06;;;;;;;;;;;;;;;16.60;44.34;95968.97;4174456;28;5824;-65
2022/04/20 14:35:10;;;;;;;;;;;;;;;16.58;44.34;95963.09;4174667;28;6653;-68
2022/04/20 14:37:12;;;;;;;;;;;;;;;16.65;44.70;95963.69;4165300;28;5732;-66
2022/04/20 14:39:13;;;;;;;;;;;;;;;16.73;44.07;95963.25;4164219;28;5847;-69
2022/04/20 14:41:15;;;;;;;;;;;;;;;16.75;44.52;95968.34;4177386;28;6542;-65
2022/04/20 14:43:18;;;;;;;;;;;;;;;16.76;43.95;95970.78;4164129;28;5749;-66
2022/04/20 14:45:23;;;;;;;;;;;;;;;16.86;43.91;95968.19;4169963;28;5717;-68
2022/04/20 14:47:24;;;;;;;;;;;;;;;16.77;43.30;95967.06;4158840;28;5745;-66
2022/04/20 14:49:26;;;;;;;;;;;;;;;16.81;43.74;95970.03;4163316;28;6304;-67
2022/04/20 14:51:35;;;;;;;;;;;;;;;16.77;43.79;95966.25;4169124;28;5813;-65
2022/04/20 14:53:37;;;;;;;;;;;;;;;16.76;43.33;95965.44;4182531;28;5828;-64
2022/04/20 14:55:39;;;;;;;;;;;;;;;16.79;43.21;95959.59;4178001;28;5101;-64
2022/04/20 14:57:42;;;;;;;;;;;;;;;16.77;43.24;95955.56;4180298;28;5883;-65
2022/04/20 14:59:43;;;;;;;;;;;;;;;16.83;43.50;95957.22;4163477;28;5651;-62
2022/04/20 15:01:45;;;;;;;;;;;;;;;16.80;43.55;95950.53;4181392;28;5791;-63
2022/04/20 15:03:47;;;;;;;;;;;;;;;16.76;43.20;95959.28;4169758;28;5733;-64
2022/04/20 15:05:48;;;;;;;;;;;;;;;16.72;43.60;95964.31;4163429;28;5741;-65
2022/04/20 15:07:51;;;;;;;;;;;;;;;16.66;43.48;95956.50;4167163;28;5734;-64
2022/04/20 15:09:53;;;;;;;;;;;;;;;16.70;43.50;95958.44;4166231;28;5929;-65
2022/04/20 15:11:57;;;;;;;;;;;;;;;16.80;43.54;95950.53;4167133;28;5984;-66
2022/04/20 15:14:00;;;;;;;;;;;;;;;16.86;43.47;95957.50;4165891;28;5779;-65
2022/04/20 15:16:02;;;;;;;;;;;;;;;16.90;42.93;95959.69;4172119;28;5870;-65
2022/04/20 15:18:06;;;;;;;;;;;;;;;16.91;43.15;95955.97;4168583;28;5845;-65
2022/04/20 15:20:08;;;;;;;;;;;;;;;16.91;43.54;95961.31;4160461;28;5865;-65
2022/04/20 15:22:11;;;;;;;;;;;;;;;16.86;43.75;95962.03;4147191;28;5689;-65
2022/04/20 15:24:13;;;;;;;;;;;;;;;16.85;43.96;95963.91;4166852;28;5821;-65
2022/04/20 15:26:16;;;;;;;;;;;;;;;16.86;43.73;95962.84;4168009;28;5993;-65
2022/04/20 15:28:17;;;;;;;;;;;;;;;16.77;43.58;95964.38;4175477;28;5712;-65
2022/04/20 15:30:19;;;;;;;;;;;;;;;16.76;44.10;95960.09;4178150;28;5726;-65
2022/04/20 15:32:22;;;;;;;;;;;;;;;16.76;44.19;95967.28;4162157;28;6057;-65
2022/04/20 15:34:24;;;;;;;;;;;;;;;16.73;44.14;95973.94;4151290;28;7773;-65
2022/04/20 15:36:28;;;;;;;;;;;;;;;16.77;44.26;95961.72;4174989;28;5733;-65
2022/04/20 15:38:29;;;;;;;;;;;;;;;16.84;43.95;95964.97;4173711;28;5753;-65
2022/04/20 15:40:32;;;;;;;;;;;;;;;16.74;43.96;95970.22;4183580;28;5784;-64
2022/04/20 15:42:37;;;;;;;;;;;;;;;16.80;43.88;95971.88;4174905;28;5883;-66
2022/04/20 15:44:39;;;;;;;;;;;;;;;16.70;44.43;95963.78;4164119;28;7618;-66
2022/04/20 15:46:41;;;;;;;;;;;;;;;16.55;44.32;95974.25;4167647;28;5743;-66
2022/04/20 15:48:44;;;;;;;;;;;;;;;16.68;44.44;95968.56;4181568;28;5788;-66
2022/04/20 15:50:45;;;;;;;;;;;;;;;16.77;44.01;95968.91;4180123;28;5827;-66
2022/04/20 15:52:47;;;;;;;;;;;;;;;16.76;44.19;95969.94;4176776;28;6391;-66
2022/04/20 16:00:13;;;;;;;;;;;;;;;16.53;44.45;95973.69;4179851;28;5871;-65
2022/04/20 16:02:08;;;;;;;;;;;;;;;16.42;45.05;95974.63;4101081;28;5942;-66
2022/04/20 16:04:10;;;;;;;;;;;;;;;16.57;45.08;95972.94;4098715;28;5773;-66
2022/04/20 16:06:12;;;;;;;;;;;;;;;16.59;45.89;95973.50;4103794;28;5296;-66
2022/04/20 16:08:15;;;;;;;;;;;;;;;16.66;45.53;95975.97;4102023;28;6553;-67
2022/04/20 16:10:17;;;;;;;;;;;;;;;16.69;45.52;95975.50;4114632;28;5829;-66
2022/04/20 16:12:19;;;;;;;;;;;;;;;16.65;45.86;95978.88;4109375;28;5851;-66
2022/04/20 16:14:22;;;;;;;;;;;;;;;16.61;45.83;95967.91;4103150;28;5857;-66
2022/04/20 16:16:24;;;;;;;;;;;;;;;16.62;45.68;95969.53;4098441;28;5879;-66
2022/04/20 16:18:26;;;;;;;;;;;;;;;16.57;45.83;95967.63;4096735;28;6039;-66
2022/04/20 16:20:27;;;;;;;;;;;;;;;16.49;45.58;95972.59;4083930;28;5964;-66
2022/04/20 16:22:29;;;;;;;;;;;;;;;16.47;45.58;95972.03;4099660;28;5934;-66
2022/04/20 16:24:31;;;;;;;;;;;;;;;16.51;45.58;95973.13;4102417;28;5856;-66
2022/04/20 16:26:36;;;;;;;;;;;;;;;16.53;45.64;95979.81;4099810;28;5932;-66
2022/04/20 16:28:37;;;;;;;;;;;;;;;16.31;45.68;95968.41;4082936;28;5867;-66
2022/04/20 16:30:40;;;;;;;;;;;;;;;16.42;45.79;95966.63;4106506;28;7775;-66
2022/04/20 16:32:43;;;;;;;;;;;;;;;16.47;45.82;95969.38;4110043;28;5926;-66
2022/04/20 16:34:45;;;;;;;;;;;;;;;16.50;45.79;95968.84;4110287;28;5830;-66
2022/04/20 16:36:49;;;;;;;;;;;;;;;16.51;45.73;95968.59;4152873;28;5773;-66
2022/04/20 16:38:51;;;;;;;;;;;;;;;16.54;45.94;95967.31;4175337;28;5745;-67
2022/04/20 16:40:55;;;;;;;;;;;;;;;16.56;45.79;95973.22;4164605;28;5762;-67
2022/04/20 16:43:01;;;;;;;;;;;;;;;16.58;46.55;95971.09;4167718;28;5815;-67
2022/04/20 16:45:07;;;;;;;;;;;;;;;16.55;47.37;95975.06;4152627;28;5822;-67
2022/04/20 16:47:09;;;;;;;;;;;;;;;16.47;46.81;95972.03;4166847;28;5755;-67
2022/04/20 16:49:11;;;;;;;;;;;;;;;16.51;47.03;95973.13;4163174;28;5744;-66